Time;durP1;ratioP1;P1;durP2;ratioP2;P2;SDS_P1;SDS_P2;PMS_P1;PMS_P2;Temp;Humidity;BMP_temperature;BMP_pressure;BME280_temperature;BME280_humidity;BME280_pressure;Samples;Min_cycle;Max_cycle;Signal;HPM_P1;HPM_P2
2021/03/31 00:00:23;;;;;;;11.65;4.68;;;7.30;95.50;;;;;;4878467;29;20184;-78
2021/03/31 00:02:58;;;;;;;9.50;4.93;;;7.30;95.90;;;;;;4878171;29;20052;-79
2021/03/31 00:05:26;;;;;;;14.10;7.88;;;7.20;96.40;;;;;;4879229;29;20029;-78
2021/03/31 00:07:53;;;;;;;16.73;6.40;;;7.20;96.80;;;;;;4878461;29;20033;-78
2021/03/31 00:10:21;;;;;;;9.13;4.97;;;7.00;97.30;;;;;;4877047;29;20053;-78
2021/03/31 00:12:48;;;;;;;8.77;4.65;;;6.90;98.20;;;;;;4880195;29;20052;-78
2021/03/31 00:15:15;;;;;;;10.73;4.78;;;6.90;98.80;;;;;;4882794;29;20077;-78
2021/03/31 00:17:41;;;;;;;9.50;6.32;;;7.00;98.90;;;;;;4882136;29;20037;-77
2021/03/31 00:20:17;;;;;;;28.35;17.60;;;6.90;98.80;;;;;;4880546;29;20049;-77
2021/03/31 00:22:44;;;;;;;11.93;8.65;;;6.80;99.20;;;;;;4882019;29;20041;-78
2021/03/31 00:25:12;;;;;;;9.32;5.05;;;6.80;99.90;;;;;;4881836;29;20391;-77
2021/03/31 00:27:45;;;;;;;10.38;5.50;;;6.80;99.70;;;;;;4882505;29;20041;-77
2021/03/31 00:30:17;;;;;;;14.85;5.82;;;6.80;99.80;;;;;;4881991;29;20037;-77
2021/03/31 00:32:47;;;;;;;11.43;5.22;;;6.70;99.90;;;;;;4880785;29;20080;-78
2021/03/31 00:35:13;;;;;;;10.23;5.55;;;6.70;99.90;;;;;;4881891;29;20045;-78
2021/03/31 00:37:40;;;;;;;13.02;6.38;;;6.70;99.90;;;;;;4880764;29;20037;-78
2021/03/31 00:40:13;;;;;;;13.68;6.88;;;6.70;99.90;;;;;;4896535;29;20043;-77
2021/03/31 00:42:41;;;;;;;12.70;6.80;;;6.50;99.90;;;;;;4886014;29;20040;-77
2021/03/31 00:45:09;;;;;;;12.13;7.13;;;6.50;99.90;;;;;;4880339;29;20041;-78
2021/03/31 00:47:36;;;;;;;10.00;6.75;;;6.50;99.90;;;;;;4882175;29;20450;-78
2021/03/31 00:50:05;;;;;;;17.05;6.35;;;6.50;99.90;;;;;;4881997;29;20040;-76
2021/03/31 00:52:32;;;;;;;13.38;6.55;;;6.50;99.90;;;;;;4882047;29;20045;-77
2021/03/31 00:54:58;;;;;;;12.05;6.65;;;6.70;99.90;;;;;;4880249;29;20041;-77
2021/03/31 00:57:25;;;;;;;13.05;8.10;;;6.70;99.90;;;;;;4881785;29;20036;-77
2021/03/31 00:59:51;;;;;;;12.20;6.85;;;6.70;99.90;;;;;;4881507;29;20040;-78
2021/03/31 01:02:17;;;;;;;11.98;7.00;;;6.60;99.90;;;;;;4881453;29;20039;-78
2021/03/31 01:04:44;;;;;;;10.90;8.10;;;6.50;99.90;;;;;;4880464;29;20041;-78
2021/03/31 01:07:10;;;;;;;12.25;6.90;;;6.50;99.90;;;;;;4881477;29;20033;-77
2021/03/31 01:09:37;;;;;;;11.77;6.22;;;6.50;99.90;;;;;;4881698;29;20033;-77
2021/03/31 01:12:10;;;;;;;9.73;5.30;;;6.50;99.90;;;;;;4880829;29;20033;-78
2021/03/31 01:14:55;;;;;;;11.38;7.30;;;6.40;99.90;;;;;;4894161;29;20073;-77
2021/03/31 01:17:45;;;;;;;16.75;7.85;;;6.30;99.90;;;;;;4886212;29;20494;-77
2021/03/31 01:20:29;;;;;;;16.02;8.85;;;6.30;99.90;;;;;;4880116;29;20044;-78
2021/03/31 01:23:39;;;;;;;14.18;8.85;;;6.30;99.90;;;;;;4884452;29;20041;-78
2021/03/31 01:26:45;;;;;;;14.25;7.90;;;6.20;99.90;;;;;;4838467;29;20045;-77
2021/03/31 01:29:20;;;;;;;14.80;7.65;;;6.10;99.90;;;;;;4822991;29;20057;-78
2021/03/31 01:32:12;;;;;;;15.80;8.15;;;6.10;99.90;;;;;;4874053;29;20057;-79
2021/03/31 01:35:09;;;;;;;10.80;7.20;;;6.10;99.90;;;;;;4881655;29;20386;-77
2021/03/31 01:37:39;;;;;;;13.77;8.48;;;6.00;99.90;;;;;;4872967;29;20048;-78
2021/03/31 01:40:09;;;;;;;11.65;7.57;;;5.90;99.90;;;;;;4880832;29;20475;-79
2021/03/31 01:42:44;;;;;;;11.20;7.25;;;6.00;99.90;;;;;;4880944;29;20048;-77
2021/03/31 01:45:11;;;;;;;12.23;8.23;;;6.00;99.90;;;;;;4862227;29;20045;-78
2021/03/31 01:47:42;;;;;;;14.52;7.90;;;5.90;99.90;;;;;;4862555;29;20040;-77
2021/03/31 01:50:10;;;;;;;10.60;7.40;;;5.90;99.90;;;;;;4862083;29;20041;-78
2021/03/31 01:52:37;;;;;;;14.35;7.75;;;5.80;99.90;;;;;;4861524;29;20188;-78
2021/03/31 01:55:06;;;;;;;13.88;7.90;;;5.80;99.90;;;;;;4861916;29;20056;-78
2021/03/31 01:57:33;;;;;;;16.85;8.48;;;5.80;99.90;;;;;;4862017;29;20044;-77
2021/03/31 02:00:00;;;;;;;14.10;8.07;;;5.70;99.90;;;;;;4869509;29;20041;-77
2021/03/31 02:02:27;;;;;;;14.07;8.55;;;5.70;99.90;;;;;;4862339;29;20034;-77
2021/03/31 02:04:54;;;;;;;13.77;8.23;;;5.70;99.90;;;;;;4861232;29;20044;-77
2021/03/31 02:07:22;;;;;;;12.80;7.45;;;5.60;99.90;;;;;;4860695;29;20040;-78
2021/03/31 02:09:50;;;;;;;10.18;7.55;;;5.60;99.90;;;;;;4862050;29;20041;-77
2021/03/31 02:12:23;;;;;;;15.63;8.63;;;5.60;99.90;;;;;;4861462;29;20052;-78
2021/03/31 02:14:51;;;;;;;16.35;8.27;;;5.60;99.90;;;;;;4860887;29;20030;-78
2021/03/31 02:17:24;;;;;;;15.63;8.85;;;5.60;99.90;;;;;;4861516;29;20390;-77
2021/03/31 02:19:52;;;;;;;15.25;8.23;;;5.50;99.90;;;;;;4874119;29;20037;-79
2021/03/31 02:22:20;;;;;;;19.65;9.45;;;5.50;99.90;;;;;;4861328;29;20041;-77
2021/03/31 02:24:47;;;;;;;17.30;8.85;;;5.40;99.90;;;;;;4860273;29;20046;-77
2021/03/31 02:27:14;;;;;;;19.48;8.95;;;5.30;99.90;;;;;;4861440;29;20045;-78
2021/03/31 02:29:44;;;;;;;15.77;9.05;;;5.20;99.90;;;;;;4861692;29;20080;-77
2021/03/31 02:32:12;;;;;;;14.07;9.40;;;5.20;99.90;;;;;;4861523;29;20657;-78
2021/03/31 02:34:39;;;;;;;14.27;8.88;;;5.30;99.90;;;;;;4861556;29;20034;-78
2021/03/31 02:37:06;;;;;;;18.27;9.68;;;5.20;99.90;;;;;;4860453;29;20072;-78
2021/03/31 02:39:37;;;;;;;16.63;10.38;;;5.20;99.90;;;;;;4861246;29;20396;-77
2021/03/31 02:42:10;;;;;;;17.17;9.02;;;5.20;99.90;;;;;;4860724;29;20056;-78
2021/03/31 02:44:43;;;;;;;18.35;10.18;;;5.20;99.90;;;;;;4876839;29;20064;-78
2021/03/31 02:47:13;;;;;;;16.55;8.95;;;5.10;99.90;;;;;;4883247;29;20045;-78
2021/03/31 02:49:40;;;;;;;16.02;8.93;;;5.00;99.90;;;;;;4885339;29;20479;-78
2021/03/31 02:52:08;;;;;;;15.88;9.55;;;5.00;99.90;;;;;;4878845;29;20048;-79
2021/03/31 02:54:35;;;;;;;16.88;9.57;;;4.90;99.90;;;;;;4878185;29;20053;-79
2021/03/31 02:57:01;;;;;;;16.92;10.15;;;4.80;99.90;;;;;;4879413;29;20033;-78
2021/03/31 02:59:30;;;;;;;15.48;10.00;;;4.90;99.90;;;;;;4879740;29;20044;-78
2021/03/31 03:01:57;;;;;;;15.98;9.32;;;4.90;99.90;;;;;;4877902;29;20053;-78
2021/03/31 03:04:24;;;;;;;38.80;22.58;;;4.90;99.90;;;;;;4878328;29;20029;-78
2021/03/31 03:06:51;;;;;;;28.45;16.08;;;4.90;99.90;;;;;;4879977;29;20383;-79
2021/03/31 03:09:18;;;;;;;38.25;20.63;;;5.00;99.90;;;;;;4879604;29;20052;-78
2021/03/31 03:11:45;;;;;;;16.73;11.10;;;4.90;99.90;;;;;;4878209;29;20048;-78
2021/03/31 03:14:12;;;;;;;15.20;9.10;;;4.90;99.90;;;;;;4879101;29;20041;-78
2021/03/31 03:16:38;;;;;;;15.63;9.32;;;5.00;99.90;;;;;;4879739;29;20040;-78
2021/03/31 03:19:07;;;;;;;17.33;9.23;;;4.90;99.90;;;;;;4878332;29;20033;-78
2021/03/31 03:21:37;;;;;;;14.38;8.70;;;4.90;99.90;;;;;;4879281;29;20040;-78
2021/03/31 03:24:05;;;;;;;17.70;9.15;;;4.80;99.90;;;;;;4879364;29;20036;-78
2021/03/31 03:26:35;;;;;;;14.57;8.30;;;4.80;99.90;;;;;;4878170;29;20474;-78
2021/03/31 03:29:02;;;;;;;13.30;8.63;;;4.80;99.90;;;;;;4878583;29;20489;-77
2021/03/31 03:31:29;;;;;;;14.75;8.32;;;4.80;99.90;;;;;;4877696;29;20040;-78
2021/03/31 03:33:55;;;;;;;15.00;8.80;;;4.70;99.90;;;;;;4877394;29;20060;-78
2021/03/31 03:36:22;;;;;;;13.95;8.35;;;4.60;99.90;;;;;;4879147;29;20060;-78
2021/03/31 03:38:49;;;;;;;16.55;8.52;;;4.60;99.90;;;;;;4879061;29;20037;-77
2021/03/31 03:41:15;;;;;;;13.23;8.52;;;4.60;99.90;;;;;;4878687;29;20443;-77
2021/03/31 03:43:42;;;;;;;17.38;9.70;;;4.60;99.90;;;;;;4879115;29;20057;-77
2021/03/31 03:46:11;;;;;;;14.48;8.07;;;4.60;99.90;;;;;;4878384;29;20040;-77
2021/03/31 03:48:38;;;;;;;13.88;9.23;;;4.60;99.90;;;;;;4877455;29;20047;-77
2021/03/31 03:51:09;;;;;;;13.27;7.75;;;4.50;99.90;;;;;;4878852;29;20041;-77
2021/03/31 03:53:36;;;;;;;17.67;9.18;;;4.50;99.90;;;;;;4878646;29;20040;-77
2021/03/31 03:56:08;;;;;;;19.25;8.48;;;4.60;99.90;;;;;;4878551;29;20382;-77
2021/03/31 03:58:34;;;;;;;15.27;9.43;;;4.60;99.90;;;;;;4877606;29;20041;-77
2021/03/31 04:01:00;;;;;;;18.02;9.13;;;4.60;99.90;;;;;;4878383;29;20044;-77
2021/03/31 04:03:26;;;;;;;16.70;8.63;;;4.60;99.90;;;;;;4878135;29;20055;-77
2021/03/31 04:05:52;;;;;;;20.65;10.88;;;4.50;99.90;;;;;;4878619;29;20403;-78
2021/03/31 04:08:19;;;;;;;15.60;9.48;;;4.40;99.90;;;;;;4877869;29;20469;-77
2021/03/31 04:10:53;;;;;;;15.48;8.90;;;4.50;99.90;;;;;;4878287;29;20374;-77
2021/03/31 04:13:21;;;;;;;15.93;9.18;;;4.40;99.90;;;;;;4878740;29;20044;-77
2021/03/31 04:15:51;;;;;;;16.35;8.90;;;4.50;99.90;;;;;;4877307;29;20057;-78
2021/03/31 04:18:20;;;;;;;18.05;9.80;;;4.40;99.90;;;;;;4878933;29;20044;-78
2021/03/31 04:20:49;;;;;;;18.50;9.60;;;4.50;99.90;;;;;;4878471;29;20063;-78
2021/03/31 04:23:16;;;;;;;18.85;9.23;;;4.40;99.90;;;;;;4878427;29;20037;-78
2021/03/31 04:25:42;;;;;;;17.50;9.93;;;4.30;99.90;;;;;;4877311;29;20049;-77
2021/03/31 04:28:12;;;;;;;15.45;9.27;;;4.30;99.90;;;;;;4877622;29;20037;-77
2021/03/31 04:30:40;;;;;;;16.15;9.52;;;4.30;99.90;;;;;;4878562;29;20059;-77
2021/03/31 04:33:10;;;;;;;19.85;9.50;;;4.40;99.90;;;;;;4877709;29;20033;-77
2021/03/31 04:35:36;;;;;;;13.30;9.38;;;4.30;99.90;;;;;;4877039;29;20040;-77
2021/03/31 04:38:08;;;;;;;16.52;9.80;;;4.20;99.90;;;;;;4878237;29;20029;-77
2021/03/31 04:40:41;;;;;;;19.35;10.02;;;4.20;99.90;;;;;;4878261;29;20032;-77
2021/03/31 04:43:07;;;;;;;16.63;9.50;;;4.20;99.90;;;;;;4885391;29;20072;-77
2021/03/31 04:45:34;;;;;;;13.90;9.20;;;4.10;99.90;;;;;;4877771;29;20463;-78
2021/03/31 04:48:00;;;;;;;18.17;9.10;;;4.10;99.90;;;;;;4877957;29;20037;-77
2021/03/31 04:50:26;;;;;;;15.80;8.43;;;4.00;99.90;;;;;;4877959;29;20459;-77
2021/03/31 04:52:52;;;;;;;18.95;10.00;;;4.00;99.90;;;;;;4876884;29;20045;-77
2021/03/31 04:55:19;;;;;;;20.90;10.82;;;4.00;99.90;;;;;;4878123;29;20048;-76
2021/03/31 04:57:48;;;;;;;15.55;9.20;;;4.00;99.90;;;;;;4878879;29;20055;-76
2021/03/31 05:00:14;;;;;;;18.98;10.15;;;4.10;99.90;;;;;;4888320;29;20399;-76
2021/03/31 05:02:41;;;;;;;16.00;9.73;;;4.10;99.90;;;;;;4881957;29;20036;-76
2021/03/31 05:05:08;;;;;;;13.18;8.90;;;4.10;99.90;;;;;;4879891;29;20049;-78
2021/03/31 05:07:34;;;;;;;16.35;9.70;;;4.00;99.90;;;;;;4881273;29;20364;-78
2021/03/31 05:10:00;;;;;;;15.18;9.27;;;4.10;99.90;;;;;;4881596;29;20048;-78
2021/03/31 05:12:26;;;;;;;16.17;10.13;;;4.00;99.90;;;;;;4880496;29;20386;-78
2021/03/31 05:14:53;;;;;;;17.92;9.95;;;4.00;99.90;;;;;;4889326;29;20402;-77
2021/03/31 05:17:19;;;;;;;13.65;9.75;;;3.90;99.90;;;;;;4880184;29;20037;-77
2021/03/31 05:19:45;;;;;;;18.73;10.45;;;3.90;99.90;;;;;;4881406;29;20037;-77
2021/03/31 05:22:11;;;;;;;21.67;11.55;;;3.80;99.90;;;;;;4880967;29;20025;-77
2021/03/31 05:24:38;;;;;;;19.88;10.95;;;3.80;99.90;;;;;;4879654;29;20059;-77
2021/03/31 05:27:04;;;;;;;22.92;14.48;;;3.80;99.90;;;;;;4887853;29;20391;-76
2021/03/31 05:29:31;;;;;;;27.02;17.25;;;3.90;99.90;;;;;;4879394;29;20041;-77
2021/03/31 05:31:58;;;;;;;18.83;12.85;;;3.90;99.90;;;;;;4880577;29;20045;-77
2021/03/31 05:34:25;;;;;;;19.10;11.35;;;3.90;99.90;;;;;;4879824;29;20049;-77
2021/03/31 05:36:52;;;;;;;21.13;14.35;;;3.90;99.90;;;;;;4879661;29;20056;-77
2021/03/31 05:39:18;;;;;;;26.20;15.15;;;3.90;99.90;;;;;;4880781;29;20498;-77
2021/03/31 05:41:45;;;;;;;16.85;11.30;;;4.00;99.90;;;;;;4879919;29;20041;-77
2021/03/31 05:44:11;;;;;;;14.57;10.00;;;4.10;99.90;;;;;;4879281;29;20056;-77
2021/03/31 05:46:42;;;;;;;16.15;9.43;;;4.10;99.90;;;;;;4880418;29;20486;-77
2021/03/31 05:49:09;;;;;;;23.25;10.88;;;4.10;99.90;;;;;;4880694;29;20063;-76
2021/03/31 05:51:35;;;;;;;17.08;9.18;;;4.10;99.90;;;;;;4880594;29;20037;-78
2021/03/31 05:54:02;;;;;;;15.90;9.50;;;4.10;99.90;;;;;;4879570;29;20493;-78
2021/03/31 05:56:32;;;;;;;17.27;10.27;;;4.30;99.90;;;;;;4880942;29;20033;-76
2021/03/31 05:59:05;;;;;;;16.57;10.50;;;5.10;99.90;;;;;;4880557;29;20049;-78
2021/03/31 06:01:32;;;;;;;16.27;11.52;;;6.20;99.90;;;;;;4880927;29;20043;-77
2021/03/31 06:03:59;;;;;;;20.05;12.38;;;7.60;98.40;;;;;;4880528;29;20029;-77
2021/03/31 06:06:25;;;;;;;13.82;11.50;;;8.50;92.70;;;;;;4880824;29;20037;-77
2021/03/31 06:08:52;;;;;;;14.43;9.90;;;9.40;87.00;;;;;;4880221;29;20037;-77
2021/03/31 06:11:21;;;;;;;16.60;10.95;;;10.00;80.70;;;;;;4879151;29;20037;-77
2021/03/31 06:13:53;;;;;;;11.80;10.10;;;11.00;75.40;;;;;;4885033;29;20132;-77
2021/03/31 06:16:28;;;;;;;12.30;9.13;;;11.90;70.30;;;;;;4893096;29;20041;-77
2021/03/31 06:18:55;;;;;;;14.75;11.60;;;12.30;66.50;;;;;;4880332;29;20490;-76
2021/03/31 06:21:22;;;;;;;17.35;12.88;;;12.10;66.60;;;;;;4880467;29;20049;-77
2021/03/31 06:26:27;;;;;;;13.90;12.48;;;12.80;63.90;;;;;;4879681;29;20060;-78
2021/03/31 06:29:04;;;;;;;12.65;7.93;;;13.80;61.40;;;;;;4879632;29;20495;-78
2021/03/31 06:31:43;;;;;;;11.23;8.77;;;14.60;58.80;;;;;;4880099;29;20033;-77
2021/03/31 06:34:21;;;;;;;11.10;9.13;;;14.30;58.60;;;;;;4879315;29;20043;-76
2021/03/31 06:36:50;;;;;;;9.93;6.97;;;14.40;58.70;;;;;;4879480;29;20045;-77
2021/03/31 06:39:36;;;;;;;11.85;8.32;;;14.00;59.70;;;;;;4879538;29;20452;-78
2021/03/31 06:42:11;;;;;;;14.95;8.70;;;13.70;60.90;;;;;;4896395;29;20039;-78
2021/03/31 06:49:52;;;;;;;12.90;8.20;;;15.30;58.80;;;;;;4879555;29;20060;-76
2021/03/31 06:52:19;;;;;;;12.50;7.57;;;16.20;56.90;;;;;;4878619;29;20051;-77
2021/03/31 06:54:54;;;;;;;11.88;8.05;;;16.80;55.00;;;;;;4879865;29;20356;-77
2021/03/31 06:57:28;;;;;;;13.23;9.13;;;16.90;54.60;;;;;;4879832;29;20049;-77
2021/03/31 07:00:10;;;;;;;13.65;9.80;;;17.40;53.30;;;;;;4879524;29;20049;-77
2021/03/31 07:02:39;;;;;;;15.45;9.77;;;18.10;53.00;;;;;;4879679;29;20040;-77
2021/03/31 07:05:07;;;;;;;16.33;11.27;;;18.90;51.00;;;;;;4879414;29;20041;-78
2021/03/31 07:07:38;;;;;;;15.90;10.95;;;19.70;47.80;;;;;;4879522;29;20048;-78
2021/03/31 07:10:16;;;;;;;14.45;11.15;;;20.20;47.00;;;;;;4891178;29;20045;-78
2021/03/31 07:12:48;;;;;;;14.63;11.30;;;19.80;45.90;;;;;;4879187;29;20466;-79
2021/03/31 07:15:20;;;;;;;12.38;10.63;;;18.00;48.40;;;;;;4877684;29;20052;-79
2021/03/31 07:17:53;;;;;;;14.95;11.32;;;18.90;48.50;;;;;;4879218;29;20041;-79
2021/03/31 07:20:21;;;;;;;13.70;10.18;;;19.70;46.00;;;;;;4878072;29;20067;-78
2021/03/31 07:22:48;;;;;;;17.70;10.82;;;20.90;45.20;;;;;;4878630;29;20053;-78
2021/03/31 07:25:16;;;;;;;15.15;9.98;;;20.30;44.90;;;;;;4879020;29;20033;-74
2021/03/31 07:27:44;;;;;;;14.30;9.95;;;19.70;45.90;;;;;;4879115;29;20037;-76
2021/03/31 07:30:16;;;;;;;16.13;10.55;;;18.90;46.20;;;;;;4878657;29;20052;-76
2021/03/31 07:33:00;;;;;;;21.05;11.45;;;17.90;48.20;;;;;;4878904;29;20044;-76
2021/03/31 07:35:33;;;;;;;15.18;11.20;;;17.50;48.50;;;;;;4878678;29;20037;-76
2021/03/31 07:38:03;;;;;;;14.23;11.18;;;18.90;47.00;;;;;;4878796;29;20036;-77
2021/03/31 07:40:31;;;;;;;16.38;10.57;;;17.90;47.90;;;;;;4879376;29;20049;-76
2021/03/31 07:43:14;;;;;;;15.57;10.55;;;16.80;49.70;;;;;;4878448;29;20064;-76
2021/03/31 07:45:45;;;;;;;16.65;9.90;;;17.40;48.80;;;;;;4878618;29;20402;-76
2021/03/31 07:48:13;;;;;;;19.42;10.73;;;17.80;49.20;;;;;;4879024;29;20044;-76
2021/03/31 07:50:39;;;;;;;14.73;10.10;;;19.80;47.50;;;;;;4878535;29;20052;-77
2021/03/31 07:53:07;;;;;;;17.95;10.43;;;20.50;44.90;;;;;;4878044;29;20060;-75
2021/03/31 07:55:46;;;;;;;16.23;10.88;;;20.40;44.80;;;;;;4878799;29;20043;-75
2021/03/31 07:58:12;;;;;;;19.58;11.98;;;22.10;43.50;;;;;;4878133;29;20037;-75
2021/03/31 08:00:45;;;;;;;25.10;11.48;;;21.60;43.10;;;;;;4881746;29;20044;-75
2021/03/31 08:03:15;;;;;;;17.88;12.63;;;20.60;43.60;;;;;;4893842;29;20028;-76
2021/03/31 08:06:01;;;;;;;24.00;12.25;;;19.90;45.00;;;;;;4894585;29;20025;-78
2021/03/31 08:08:27;;;;;;;22.63;13.63;;;19.20;46.00;;;;;;4878443;29;20025;-78
2021/03/31 08:10:55;;;;;;;20.02;13.93;;;20.20;44.40;;;;;;4878250;29;20600;-77
2021/03/31 08:13:35;;;;;;;23.02;14.70;;;20.40;44.30;;;;;;4878715;29;20053;-79
2021/03/31 08:16:23;;;;;;;28.42;14.45;;;20.60;45.00;;;;;;4877912;29;20029;-78
2021/03/31 08:18:55;;;;;;;20.55;12.75;;;20.50;43.80;;;;;;4878451;29;20040;-78
2021/03/31 08:21:23;;;;;;;15.32;12.15;;;20.60;42.90;;;;;;4878036;29;20048;-78
2021/03/31 08:23:51;;;;;;;16.98;10.60;;;20.90;43.40;;;;;;4878620;29;20320;-75
2021/03/31 08:26:37;;;;;;;22.83;11.10;;;21.50;42.80;;;;;;4877728;29;20045;-75
2021/03/31 08:29:17;;;;;;;14.95;10.65;;;22.50;41.20;;;;;;4878082;29;20033;-76
2021/03/31 08:31:47;;;;;;;13.77;10.43;;;21.50;41.30;;;;;;4878685;29;20104;-75
2021/03/31 08:34:15;;;;;;;17.83;11.35;;;21.50;41.70;;;;;;4880440;29;20383;-75
2021/03/31 08:36:42;;;;;;;17.48;11.40;;;21.20;42.20;;;;;;4881207;29;20056;-75
2021/03/31 08:39:11;;;;;;;15.82;10.43;;;20.90;42.20;;;;;;4881813;29;20029;-75
2021/03/31 08:41:40;;;;;;;16.43;11.40;;;21.00;43.10;;;;;;4882132;29;20044;-75
2021/03/31 08:44:21;;;;;;;14.82;10.50;;;21.40;43.20;;;;;;4881396;29;20297;-76
2021/03/31 08:46:47;;;;;;;15.32;10.68;;;21.40;42.20;;;;;;4881782;29;20052;-75
2021/03/31 08:49:24;;;;;;;16.77;10.63;;;21.40;42.40;;;;;;4881050;29;20037;-75
2021/03/31 08:51:55;;;;;;;13.48;10.18;;;21.30;42.60;;;;;;4881879;29;20072;-76
2021/03/31 08:54:36;;;;;;;14.32;10.30;;;21.70;42.60;;;;;;4880972;29;20049;-75
2021/03/31 08:57:05;;;;;;;16.27;10.57;;;20.60;43.50;;;;;;4881613;29;20037;-76
2021/03/31 08:59:37;;;;;;;18.13;10.87;;;21.50;43.60;;;;;;4881955;29;20048;-76
2021/03/31 09:02:04;;;;;;;13.98;10.75;;;22.20;42.60;;;;;;4897417;29;20036;-79
2021/03/31 09:04:31;;;;;;;15.00;10.50;;;22.80;42.20;;;;;;4881400;29;20033;-79
2021/03/31 09:06:59;;;;;;;14.85;10.10;;;23.10;42.30;;;;;;4881586;29;20044;-81
2021/03/31 09:09:33;;;;;;;18.63;10.07;;;22.70;41.90;;;;;;4881913;29;20047;-78
2021/03/31 09:12:08;;;;;;;19.63;11.27;;;21.40;43.30;;;;;;4896546;29;20045;-78
2021/03/31 09:14:36;;;;;;;15.73;10.63;;;21.40;43.30;;;;;;4881166;29;20045;-76
2021/03/31 09:17:11;;;;;;;14.90;11.10;;;22.20;43.40;;;;;;4901870;29;20044;-78
2021/03/31 09:19:40;;;;;;;17.05;11.27;;;23.30;42.00;;;;;;4880537;29;20478;-77
2021/03/31 09:22:09;;;;;;;16.45;11.32;;;23.40;41.60;;;;;;4880861;29;20478;-76
2021/03/31 09:24:43;;;;;;;15.18;10.63;;;23.90;41.50;;;;;;4880958;29;20037;-77
2021/03/31 09:27:12;;;;;;;16.13;9.70;;;23.70;41.90;;;;;;4880500;29;20033;-78
2021/03/31 09:29:44;;;;;;;17.05;10.57;;;22.80;42.20;;;;;;4880975;29;20040;-78
2021/03/31 09:32:18;;;;;;;20.05;11.32;;;23.30;41.70;;;;;;4864023;29;20048;-78
2021/03/31 09:34:46;;;;;;;16.88;11.85;;;23.50;40.40;;;;;;4880831;29;20394;-77
2021/03/31 09:37:18;;;;;;;18.73;11.93;;;23.00;40.90;;;;;;4898713;29;20039;-77
2021/03/31 09:39:49;;;;;;;19.45;11.43;;;23.40;40.90;;;;;;4882091;29;20036;-77
2021/03/31 09:42:18;;;;;;;13.80;10.27;;;23.70;40.50;;;;;;4880396;29;20044;-76
2021/03/31 09:44:46;;;;;;;15.70;11.23;;;23.70;40.20;;;;;;4880202;29;20077;-77
2021/03/31 09:47:12;;;;;;;17.50;11.05;;;23.90;40.60;;;;;;4880312;29;20403;-76
2021/03/31 09:49:42;;;;;;;16.58;11.00;;;24.10;39.90;;;;;;4879319;29;20507;-80
2021/03/31 09:55:39;;;;;;;17.13;11.75;;;23.20;40.30;;;;;;4900444;29;20059;-78
2021/03/31 09:58:06;;;;;;;16.88;11.95;;;24.00;39.90;;;;;;4888708;29;20055;-78
2021/03/31 10:00:38;;;;;;;19.70;11.63;;;23.60;39.50;;;;;;4905296;29;20037;-78
2021/03/31 10:03:05;;;;;;;13.68;10.35;;;23.50;40.20;;;;;;4888327;29;20033;-78
2021/03/31 10:05:33;;;;;;;17.15;11.60;;;23.40;40.50;;;;;;4880844;29;20088;-78
2021/03/31 10:08:01;;;;;;;18.50;12.45;;;23.00;40.20;;;;;;4880612;29;20036;-78
2021/03/31 10:10:51;;;;;;;19.75;12.80;;;22.60;40.70;;;;;;4880515;29;20033;-78
2021/03/31 10:13:20;;;;;;;20.60;13.60;;;22.30;40.50;;;;;;4880470;29;20458;-76
2021/03/31 10:15:59;;;;;;;24.58;13.88;;;21.70;40.90;;;;;;4880533;29;20043;-79
2021/03/31 10:18:32;;;;;;;21.00;14.38;;;21.20;41.70;;;;;;4893716;29;20024;-77
2021/03/31 10:21:00;;;;;;;20.45;12.07;;;20.70;42.30;;;;;;4905828;29;20073;-76
2021/03/31 10:23:30;;;;;;;20.25;11.55;;;20.70;43.10;;;;;;4884610;29;20037;-76
2021/03/31 10:26:15;;;;;;;;;;;21.00;43.10;;;;;;4881228;29;20048;-77
2021/03/31 10:28:41;;;;;;;23.38;11.77;;;21.30;42.60;;;;;;4881266;29;19911;-78
2021/03/31 10:31:28;;;;;;;18.50;11.75;;;21.10;42.30;;;;;;4880398;29;20471;-75
2021/03/31 10:33:55;;;;;;;19.88;11.75;;;21.00;43.30;;;;;;4890235;29;20059;-76
2021/03/31 10:36:58;;;;;;;18.52;11.63;;;21.20;43.20;;;;;;4880235;29;20088;-79
2021/03/31 10:50:20;;;;;;;23.02;11.40;;;21.20;42.20;;;;;;4879928;29;20045;-77
2021/03/31 10:52:49;;;;;;;21.08;12.68;;;21.30;42.00;;;;;;4896498;29;20056;-77
2021/03/31 10:55:16;;;;;;;19.48;11.05;;;21.00;42.70;;;;;;4862846;29;20486;-76
2021/03/31 10:57:42;;;;;;;18.00;11.68;;;21.30;42.10;;;;;;4880173;29;20033;-76
2021/03/31 11:00:08;;;;;;;22.38;11.98;;;21.50;41.50;;;;;;4879926;29;20044;-77
2021/03/31 11:02:35;;;;;;;19.58;12.35;;;21.70;41.90;;;;;;4879970;29;20490;-76
2021/03/31 11:05:01;;;;;;;18.55;11.10;;;21.70;41.60;;;;;;4895473;29;20032;-77
2021/03/31 11:07:27;;;;;;;17.30;11.00;;;21.50;41.60;;;;;;4896527;29;20384;-78
2021/03/31 11:09:53;;;;;;;18.35;11.52;;;21.70;41.50;;;;;;4880768;29;20471;-78
2021/03/31 11:12:20;;;;;;;18.70;12.13;;;21.90;41.70;;;;;;4879531;29;20085;-77
2021/03/31 11:14:46;;;;;;;18.17;10.55;;;21.90;41.70;;;;;;4879248;29;20494;-78
2021/03/31 11:17:35;;;;;;;17.23;9.73;;;21.60;41.90;;;;;;4880469;29;20495;-77
2021/03/31 11:25:34;;;;;;;17.42;9.70;;;21.80;41.30;;;;;;4879420;29;20025;-77
2021/03/31 11:28:01;;;;;;;17.73;11.35;;;21.70;41.50;;;;;;4878625;29;20044;-75
2021/03/31 11:30:27;;;;;;;16.67;10.02;;;22.10;41.30;;;;;;4879452;29;20044;-76
2021/03/31 11:32:54;;;;;;;15.63;10.57;;;22.20;40.50;;;;;;4878633;29;20052;-77
2021/03/31 11:35:20;;;;;;;19.20;10.77;;;22.10;40.80;;;;;;4878793;29;20041;-78
2021/03/31 11:37:46;;;;;;;21.17;10.50;;;22.00;40.50;;;;;;4878960;29;20041;-77
2021/03/31 11:40:13;;;;;;;14.82;9.00;;;22.00;40.90;;;;;;4879187;29;20049;-78
2021/03/31 11:42:39;;;;;;;19.27;11.70;;;22.00;41.10;;;;;;4878693;29;20041;-79
2021/03/31 11:45:06;;;;;;;17.63;10.65;;;21.70;41.50;;;;;;4878408;29;20049;-78
2021/03/31 11:47:32;;;;;;;17.83;10.05;;;21.90;41.40;;;;;;4879350;29;20462;-78
2021/03/31 11:49:58;;;;;;;16.60;9.82;;;22.00;41.20;;;;;;4877999;29;20395;-78
2021/03/31 11:52:25;;;;;;;18.25;10.02;;;22.30;41.70;;;;;;4878592;29;20064;-78
2021/03/31 11:54:51;;;;;;;18.05;10.48;;;22.60;41.20;;;;;;4878424;29;20033;-80
2021/03/31 11:57:18;;;;;;;15.75;9.38;;;22.70;40.60;;;;;;4878463;29;20152;-83
2021/03/31 11:59:44;;;;;;;13.95;8.93;;;22.50;40.30;;;;;;4878058;29;20052;-85
2021/03/31 12:02:10;;;;;;;16.50;9.05;;;22.50;40.90;;;;;;4895433;29;20055;-85
2021/03/31 12:04:37;;;;;;;16.40;8.45;;;22.70;39.90;;;;;;4886261;29;20033;-80
2021/03/31 12:07:04;;;;;;;13.57;8.77;;;22.80;40.10;;;;;;4877663;29;20048;-78
2021/03/31 12:09:31;;;;;;;16.17;8.63;;;22.50;39.70;;;;;;4882365;29;20463;-79
2021/03/31 12:11:59;;;;;;;17.00;9.13;;;22.70;40.50;;;;;;4881866;29;20048;-79
2021/03/31 12:14:25;;;;;;;20.27;8.82;;;23.00;40.30;;;;;;4880637;29;20499;-79
2021/03/31 12:16:51;;;;;;;14.88;9.25;;;22.90;39.70;;;;;;4882741;29;20037;-79
2021/03/31 12:19:17;;;;;;;16.70;8.68;;;22.60;40.10;;;;;;4882081;29;20028;-79
2021/03/31 12:21:47;;;;;;;17.05;8.27;;;22.80;40.50;;;;;;4882762;29;20033;-77
2021/03/31 12:24:13;;;;;;;12.95;8.68;;;23.00;40.80;;;;;;4881765;29;20037;-77
2021/03/31 12:26:39;;;;;;;14.95;9.55;;;23.20;40.60;;;;;;4882583;29;20048;-78
2021/03/31 12:29:06;;;;;;;11.35;7.45;;;23.30;40.20;;;;;;4882741;29;20029;-78
2021/03/31 12:31:32;;;;;;;10.93;7.18;;;23.30;39.90;;;;;;4883018;29;20048;-78
2021/03/31 12:33:58;;;;;;;13.05;7.07;;;23.50;40.80;;;;;;4882529;29;20037;-77
2021/03/31 12:36:25;;;;;;;16.65;7.65;;;23.60;40.00;;;;;;4880354;29;20041;-77
2021/03/31 12:38:51;;;;;;;10.50;6.13;;;23.50;39.40;;;;;;4889785;29;20397;-77
2021/03/31 12:41:17;;;;;;;11.60;7.63;;;23.50;39.40;;;;;;4890580;29;20040;-77
2021/03/31 12:43:43;;;;;;;11.27;7.05;;;23.40;39.20;;;;;;4881762;29;20049;-79
2021/03/31 12:46:10;;;;;;;11.82;6.82;;;23.40;39.00;;;;;;4881850;29;20044;-79
2021/03/31 12:48:36;;;;;;;11.48;6.57;;;23.70;39.50;;;;;;4882275;29;20039;-78
2021/03/31 12:51:06;;;;;;;11.32;6.47;;;23.70;38.90;;;;;;4882159;29;20344;-77
2021/03/31 12:53:38;;;;;;;14.55;6.63;;;23.50;38.80;;;;;;4881606;29;20375;-77
2021/03/31 12:56:04;;;;;;;11.18;6.40;;;23.40;39.20;;;;;;4881593;29;20044;-76
2021/03/31 12:58:36;;;;;;;10.88;6.25;;;23.70;39.70;;;;;;4882311;29;20037;-77
2021/03/31 13:01:09;;;;;;;8.95;5.20;;;23.80;39.10;;;;;;4881707;29;20585;-76
2021/03/31 13:03:38;;;;;;;11.60;5.43;;;23.80;38.70;;;;;;4882213;29;20473;-77
2021/03/31 13:06:05;;;;;;;10.27;5.63;;;23.40;38.40;;;;;;4881519;29;20060;-78
2021/03/31 13:08:31;;;;;;;9.45;5.72;;;23.40;38.80;;;;;;4881511;29;20124;-79
2021/03/31 13:11:04;;;;;;;13.13;5.97;;;23.40;38.90;;;;;;4881614;29;20040;-78
2021/03/31 13:16:27;;;;;;;10.98;6.05;;;23.70;38.50;;;;;;4881789;29;20057;-77
2021/03/31 13:32:05;;;;;;;10.77;5.13;;;24.10;38.40;;;;;;4880921;29;20048;-79
2021/03/31 13:34:39;;;;;;;9.82;5.07;;;24.50;37.50;;;;;;4881426;29;20033;-78